Time;durP1;ratioP1;P1;durP2;ratioP2;P2;SDS_P1;SDS_P2;PMS_P1;PMS_P2;Temp;Humidity;BMP_temperature;BMP_pressure;BME280_temperature;BME280_humidity;BME280_pressure;Samples;Min_cycle;Max_cycle;Signal;HPM_P1;HPM_P2
2020/12/04 00:00:58;;;;;;;24.80;16.80;;;;;;;0.00;89.17;99651.48;3559716;82;25802;-74
2020/12/04 00:05:59;;;;;;;25.87;17.70;;;;;;;0.01;89.73;99655.81;3552711;83;25815;-77
2020/12/04 00:11:00;;;;;;;22.37;16.47;;;;;;;0.03;89.76;99641.41;3552494;83;30977;-76
2020/12/04 00:16:01;;;;;;;21.17;14.07;;;;;;;0.03;89.60;99648.82;3552504;83;25854;-77
2020/12/04 00:21:02;;;;;;;27.87;18.13;;;;;;;-0.04;90.01;99623.55;3552408;83;26276;-77
2020/12/04 00:26:03;;;;;;;24.93;17.23;;;;;;;-0.02;90.31;99638.38;3552338;83;30949;-77
2020/12/04 00:31:04;;;;;;;28.57;18.07;;;;;;;-0.01;90.25;99633.56;3552498;83;30966;-77
2020/12/04 00:36:05;;;;;;;27.17;17.83;;;;;;;-0.02;90.23;99636.20;3552462;83;31051;-77
2020/12/04 00:41:06;;;;;;;30.68;19.10;;;;;;;0.00;90.18;99643.63;3552522;83;30919;-70
2020/12/04 00:46:13;;;;;;;28.40;18.83;;;;;;;-0.01;90.28;99643.19;3552400;83;31013;-77
2020/12/04 00:51:14;;;;;;;20.00;13.73;;;;;;;0.01;90.49;99653.20;3552413;83;30967;-77
2020/12/04 00:56:16;;;;;;;24.60;17.30;;;;;;;-0.01;90.58;99657.15;3552480;83;25753;-76
2020/12/04 01:01:17;;;;;;;22.53;15.97;;;;;;;-0.08;90.76;99638.89;3552251;82;31046;-68
2020/12/04 01:06:19;;;;;;;26.00;17.97;;;;;;;-0.11;91.12;99641.52;3552358;83;25785;-69
2020/12/04 01:11:21;;;;;;;26.23;16.77;;;;;;;-0.12;91.47;99621.44;3552392;83;25822;-77
2020/12/04 01:16:22;;;;;;;26.57;17.77;;;;;;;-0.11;91.42;99610.97;3552516;83;31002;-78
2020/12/04 01:21:23;;;;;;;25.47;16.73;;;;;;;-0.14;91.16;99612.74;3552314;83;25774;-76
2020/12/04 01:26:24;;;;;;;17.63;13.37;;;;;;;-0.14;91.69;99608.81;3552401;82;25780;-76
2020/12/04 01:31:25;;;;;;;27.43;17.40;;;;;;;-0.10;91.15;99605.27;3552466;83;26461;-77
2020/12/04 01:36:28;;;;;;;24.57;16.13;;;;;;;-0.06;90.76;99613.09;3552513;83;25798;-76
2020/12/04 01:41:35;;;;;;;23.53;15.17;;;;;;;-0.03;90.73;99607.81;3552280;83;30965;-77
2020/12/04 01:46:36;;;;;;;26.03;16.63;;;;;;;0.05;90.23;99574.11;3552161;83;31407;-77
2020/12/04 01:51:37;;;;;;;28.20;18.73;;;;;;;0.10;90.03;99603.33;3552234;83;31523;-76
2020/12/04 01:56:38;;;;;;;26.17;16.17;;;;;;;0.10;89.86;99581.05;3552434;83;25823;-77
2020/12/04 02:01:44;;;;;;;16.10;10.72;;;;;;;0.04;90.04;99566.70;3560420;82;25708;-77
2020/12/04 02:06:54;;;;;;;28.03;18.03;;;;;;;0.06;90.18;99565.37;3567794;83;31488;-70
2020/12/04 02:12:02;;;;;;;27.53;18.40;;;;;;;0.13;89.98;99563.11;3565542;83;30972;-69
2020/12/04 02:17:06;;;;;;;23.60;16.07;;;;;;;0.17;89.48;99553.03;3567899;83;31022;-77
2020/12/04 02:22:08;;;;;;;24.93;16.20;;;;;;;0.15;89.48;99543.86;3567957;83;34914;-78
2020/12/04 02:27:09;;;;;;;27.47;17.13;;;;;;;0.12;89.79;99523.36;3568166;83;31416;-76
2020/12/04 02:32:14;;;;;;;23.60;16.77;;;;;;;0.12;89.75;99516.39;3567834;83;25815;-70
2020/12/04 02:37:15;;;;;;;25.75;17.73;;;;;;;0.17;89.88;99524.62;3567982;83;25848;-70
2020/12/04 02:42:16;;;;;;;27.37;16.50;;;;;;;0.14;90.20;99513.28;3567604;83;26454;-70
2020/12/04 02:47:17;;;;;;;23.37;15.77;;;;;;;0.12;89.94;99504.59;3567885;83;25829;-70
2020/12/04 02:52:25;;;;;;;23.77;16.63;;;;;;;0.12;90.39;99532.54;3567822;83;25843;-69
2020/12/04 02:57:26;;;;;;;25.73;16.57;;;;;;;0.10;90.31;99512.05;3568151;83;31029;-76
2020/12/04 03:02:27;;;;;;;27.40;17.57;;;;;;;0.16;90.01;99510.67;3567731;81;25824;-77
2020/12/04 03:07:27;;;;;;;24.97;17.27;;;;;;;0.12;90.22;99505.02;3567924;83;25827;-77
2020/12/04 03:12:28;;;;;;;26.73;17.97;;;;;;;0.12;90.53;99500.66;3567795;83;25741;-76
2020/12/04 03:17:30;;;;;;;22.13;15.67;;;;;;;0.13;90.63;99485.79;3567786;83;35014;-76
2020/12/04 03:22:31;;;;;;;25.40;17.07;;;;;;;0.15;90.44;99486.65;3567779;83;25865;-76
2020/12/04 03:27:32;;;;;;;25.47;16.77;;;;;;;0.14;90.83;99485.77;3568057;83;25797;-77
2020/12/04 03:32:33;;;;;;;25.70;17.80;;;;;;;0.12;91.07;99482.74;3567860;83;35295;-76
2020/12/04 03:37:34;;;;;;;24.13;17.30;;;;;;;0.15;91.13;99484.88;3567858;82;35422;-77
2020/12/04 03:42:35;;;;;;;26.93;17.53;;;;;;;0.17;90.92;99484.00;3568020;83;35376;-75
2020/12/04 03:47:38;;;;;;;28.47;18.27;;;;;;;0.16;91.28;99467.42;3568078;83;35294;-76
2020/12/04 03:52:39;;;;;;;23.77;14.80;;;;;;;0.15;91.70;99470.47;3568211;83;35363;-77
2020/12/04 03:57:40;;;;;;;24.47;17.00;;;;;;;0.11;92.00;99471.41;3568110;83;35390;-76
2020/12/04 04:02:41;;;;;;;28.12;18.35;;;;;;;0.11;92.31;99460.92;3568047;81;35330;-76
2020/12/04 04:07:42;;;;;;;25.23;16.30;;;;;;;0.15;92.04;99456.51;3568219;83;35384;-77
2020/12/04 04:12:43;;;;;;;27.10;17.97;;;;;;;0.10;92.37;99434.28;3568189;83;34839;-77
2020/12/04 04:17:44;;;;;;;23.57;16.13;;;;;;;0.09;92.62;99440.41;3568163;83;34887;-70
2020/12/04 04:22:45;;;;;;;28.47;18.40;;;;;;;0.07;92.78;99429.06;3567916;83;27197;-77
2020/12/04 04:27:46;;;;;;;29.07;17.00;;;;;;;0.08;92.84;99436.05;3567982;83;34839;-76
2020/12/04 04:32:47;;;;;;;24.80;17.07;;;;;;;0.10;92.93;99464.42;3596199;81;27196;-76
2020/12/04 04:37:48;;;;;;;26.73;18.47;;;;;;;0.08;93.08;99450.92;3603635;79;28852;-77
2020/12/04 04:43:10;;;;;;;23.80;17.00;;;;;;;0.11;93.10;99441.27;3609587;81;25773;-77
2020/12/04 04:48:24;;;;;;;25.80;16.93;;;;;;;0.12;93.14;99445.63;3594175;81;34984;-69
2020/12/04 04:53:25;;;;;;;25.57;17.33;;;;;;;0.12;93.15;99448.25;3597996;81;34821;-76
2020/12/04 04:58:30;;;;;;;27.53;15.87;;;;;;;0.13;93.25;99443.44;3610188;81;35371;-76
2020/12/04 05:03:33;;;;;;;22.57;15.57;;;;;;;0.11;93.43;99431.20;3664590;79;26008;-77
2020/12/04 05:08:34;;;;;;;26.93;16.33;;;;;;;0.10;93.61;99438.67;3708547;78;34996;-78
2020/12/04 05:13:36;;;;;;;30.47;19.37;;;;;;;0.15;93.39;99436.85;3693457;79;26275;-79
2020/12/04 05:18:39;;;;;;;23.53;16.00;;;;;;;0.21;93.10;99452.50;3712004;79;26192;-78
2020/12/04 05:23:53;;;;;;;23.13;16.43;;;;;;;0.13;93.57;99440.81;3721167;79;34916;-77
2020/12/04 05:28:52;;;;;;;21.33;16.00;;;;;;;0.12;93.87;99435.14;3714749;79;35151;-79
2020/12/04 05:33:53;;;;;;;25.23;17.37;;;;;;;0.14;93.80;99435.11;3715220;79;27297;-78
2020/12/04 05:38:57;;;;;;;21.03;16.00;;;;;;;0.13;94.12;99436.87;3721394;79;29119;-79
2020/12/04 05:43:58;;;;;;;22.23;15.50;;;;;;;0.11;94.11;99430.78;3724112;79;34935;-79
2020/12/04 05:49:08;;;;;;;26.17;17.23;;;;;;;0.13;94.04;99429.44;3709570;78;27263;-78
2020/12/04 05:54:10;;;;;;;21.70;14.80;;;;;;;0.10;94.60;99442.15;3696455;79;34984;-70
2020/12/04 05:59:15;;;;;;;23.70;16.60;;;;;;;0.10;94.44;99440.84;3704831;79;34960;-78
2020/12/04 06:04:18;;;;;;;23.53;15.50;;;;;;;0.10;94.84;99459.64;3691407;79;34986;-76
2020/12/04 06:09:21;;;;;;;22.87;16.47;;;;;;;0.12;94.79;99432.95;3687065;80;35369;-78
2020/12/04 06:14:23;;;;;;;22.20;15.60;;;;;;;0.15;94.38;99450.81;3687092;80;35399;-78
2020/12/04 06:19:34;;;;;;;23.27;14.83;;;;;;;0.17;94.35;99457.37;3687014;80;28670;-77
2020/12/04 06:24:56;;;;;;;24.83;16.83;;;;;;;0.20;94.54;99438.11;3686785;80;34973;-78
2020/12/04 06:29:57;;;;;;;20.70;15.67;;;;;;;0.22;94.55;99433.69;3686008;80;34977;-77
2020/12/04 06:34:58;;;;;;;21.97;12.87;;;;;;;0.22;94.58;99440.24;3686936;80;28233;-78
2020/12/04 06:40:29;;;;;;;25.82;15.80;;;;;;;0.23;94.69;99447.22;3686701;80;25781;-78
2020/12/04 06:45:48;;;;;;;22.77;14.83;;;;;;;0.28;94.74;99450.67;3686841;80;34854;-79
2020/12/04 06:50:50;;;;;;;23.00;14.80;;;;;;;0.33;94.04;99446.23;3686971;80;34842;-79
2020/12/04 06:55:51;;;;;;;23.23;16.07;;;;;;;0.34;94.31;99463.70;3686937;80;34800;-79
2020/12/04 07:00:56;;;;;;;22.50;17.20;;;;;;;0.40;94.18;99478.03;3690106;80;26285;-77
2020/12/04 07:05:57;;;;;;;25.97;17.03;;;;;;;0.46;93.87;99484.51;3699459;80;25883;-79
2020/12/04 07:10:58;;;;;;;22.40;16.67;;;;;;;0.46;93.84;99468.77;3698478;80;25735;-78
2020/12/04 07:16:01;;;;;;;21.47;15.77;;;;;;;0.55;93.26;99468.23;3698346;80;27773;-79
2020/12/04 07:21:03;;;;;;;22.17;16.83;;;;;;;0.62;92.94;99472.50;3697055;80;34893;-78
2020/12/04 07:26:09;;;;;;;23.77;16.50;;;;;;;0.68;92.42;99489.46;3698849;80;34927;-80
2020/12/04 07:31:19;;;;;;;;;;;;;;;0.68;92.52;99473.72;3700302;80;25837;-80
2020/12/04 07:36:23;;;;;;;23.97;16.53;;;;;;;0.80;91.86;99476.62;3696821;80;34878;-71
2020/12/04 07:41:38;;;;;;;23.10;16.47;;;;;;;0.88;91.43;99479.97;3697914;80;25883;-72
2020/12/04 07:46:39;;;;;;;20.87;15.50;;;;;;;0.90;91.25;99486.53;3697981;80;28123;-79
2020/12/04 07:51:41;;;;;;;22.40;15.47;;;;;;;0.93;91.23;99484.73;3698046;80;28191;-80
2020/12/04 07:56:53;;;;;;;22.93;17.00;;;;;;;1.07;90.68;99500.24;3697880;80;34896;-71
2020/12/04 08:01:54;;;;;;;19.43;14.37;;;;;;;1.12;90.34;99489.67;3696055;80;34910;-80
2020/12/04 08:07:11;;;;;;;22.97;16.33;;;;;;;1.16;90.34;99503.63;3687171;80;27244;-79
2020/12/04 08:12:24;;;;;;;26.20;16.80;;;;;;;1.19;90.30;99496.56;3667381;80;35309;-79
2020/12/04 08:17:28;;;;;;;21.37;16.47;;;;;;;1.31;89.80;99507.31;3686450;80;34808;-79
2020/12/04 08:22:34;;;;;;;21.30;15.93;;;;;;;1.37;89.26;99507.67;3687079;80;35469;-78
2020/12/04 08:27:41;;;;;;;;;;;;;;;1.50;88.91;99476.80;3689614;80;25778;-78
2020/12/04 08:32:44;;;;;;;25.17;15.77;;;;;;;1.57;88.16;99488.50;3687093;80;34806;-78
2020/12/04 08:37:47;;;;;;;19.53;13.53;;;;;;;1.75;88.05;99475.48;3686997;80;34816;-78
2020/12/04 08:42:49;;;;;;;21.57;16.00;;;;;;;1.72;87.49;99465.01;3687045;80;34825;-80
2020/12/04 08:47:50;;;;;;;21.90;14.93;;;;;;;1.70;87.58;99480.39;3687085;80;34964;-80
2020/12/04 08:52:54;;;;;;;22.17;15.53;;;;;;;1.69;88.04;99487.38;3686947;80;30138;-80
2020/12/04 08:57:56;;;;;;;22.20;15.87;;;;;;;1.71;88.05;99476.41;3643511;79;164137;-79
2020/12/04 09:02:58;;;;;;;21.43;15.60;;;;;;;1.81;87.79;99473.16;3703515;80;35385;-79
2020/12/04 09:07:59;;;;;;;22.20;15.37;;;;;;;1.82;87.66;99442.51;3704415;80;35000;-80
2020/12/04 09:13:02;;;;;;;24.07;16.60;;;;;;;1.85;87.90;99463.02;3704443;80;29223;-72
2020/12/04 09:18:03;;;;;;;24.03;16.10;;;;;;;1.88;87.69;99476.55;3704006;80;34865;-78
2020/12/04 09:23:04;;;;;;;22.90;16.50;;;;;;;2.01;87.52;99485.08;3704035;80;35287;-80
2020/12/04 09:28:06;;;;;;;22.37;16.80;;;;;;;2.00;87.10;99477.62;3704080;80;29610;-80
2020/12/04 09:33:07;;;;;;;21.37;15.73;;;;;;;2.02;87.35;99466.64;3704080;80;27278;-80
2020/12/04 09:38:08;;;;;;;22.05;16.25;;;;;;;1.97;87.62;99464.55;3704101;79;29112;-79
2020/12/04 09:43:09;;;;;;;22.75;16.70;;;;;;;2.03;87.57;99454.34;3704114;80;29170;-78
2020/12/04 09:48:10;;;;;;;23.53;17.10;;;;;;;2.06;87.70;99435.42;3704065;79;25683;-80
2020/12/04 09:53:12;;;;;;;22.10;16.50;;;;;;;2.04;88.02;99437.22;3704091;80;25766;-79
2020/12/04 09:58:16;;;;;;;23.93;15.87;;;;;;;2.07;87.97;99417.45;3704180;80;25786;-80
2020/12/04 10:03:16;;;;;;;24.53;16.07;;;;;;;2.11;87.81;99418.71;3687415;79;34892;-79
2020/12/04 10:08:17;;;;;;;25.83;16.17;;;;;;;2.19;87.54;99414.13;3642084;80;29168;-78
2020/12/04 10:13:18;;;;;;;22.03;15.43;;;;;;;2.22;87.61;99425.45;3621084;81;30071;-80
2020/12/04 10:18:19;;;;;;;26.07;17.17;;;;;;;2.27;87.51;99431.93;3620940;81;25761;-71
2020/12/04 10:23:20;;;;;;;22.00;16.07;;;;;;;2.31;87.49;99405.11;3621033;81;26500;-80
2020/12/04 10:28:21;;;;;;;22.83;16.20;;;;;;;2.35;87.56;99415.54;3621141;81;25778;-80
2020/12/04 10:33:23;;;;;;;25.40;17.43;;;;;;;2.48;87.00;99404.73;3621053;81;25707;-79
2020/12/04 10:38:24;;;;;;;23.10;15.57;;;;;;;2.53;86.56;99411.63;3621314;81;26293;-79
2020/12/04 10:43:27;;;;;;;24.73;17.13;;;;;;;2.59;86.13;99405.38;3621593;81;26256;-78
2020/12/04 10:48:28;;;;;;;24.53;17.17;;;;;;;2.61;86.38;99412.76;3605241;82;29137;-79
2020/12/04 10:53:31;;;;;;;24.47;16.90;;;;;;;2.64;86.23;99427.17;3621393;82;43863;-79
2020/12/04 10:58:32;;;;;;;24.43;17.40;;;;;;;2.75;86.14;99421.66;3621543;81;35310;-80
2020/12/04 11:08:34;;;;;;;25.40;15.73;;;;;;;2.77;85.43;99386.97;3704601;80;25793;-79
2020/12/04 11:13:35;;;;;;;23.70;17.37;;;;;;;2.83;85.25;99380.23;3704407;80;31139;-80
2020/12/04 11:18:36;;;;;;;18.60;14.13;;;;;;;2.96;84.49;99356.23;3704281;80;29141;-80
2020/12/04 11:23:37;;;;;;;21.93;16.57;;;;;;;3.07;83.86;99370.44;3704638;80;25738;-80
2020/12/04 11:28:38;;;;;;;20.90;16.67;;;;;;;2.99;84.32;99374.13;3704197;79;25841;-78
2020/12/04 11:33:39;;;;;;;20.30;14.47;;;;;;;2.94;84.55;99358.03;3704438;80;25790;-80
2020/12/04 11:38:40;;;;;;;24.80;16.17;;;;;;;2.96;84.59;99353.59;3707615;80;25722;-79
2020/12/04 11:43:41;;;;;;;22.27;15.47;;;;;;;2.93;84.74;99345.33;3704090;80;25881;-79
2020/12/04 11:48:43;;;;;;;22.90;16.07;;;;;;;2.98;84.53;99336.85;3704380;80;25780;-79
2020/12/04 11:53:43;;;;;;;20.33;15.80;;;;;;;2.97;84.54;99350.06;3704474;80;25838;-73
2020/12/04 11:58:45;;;;;;;24.40;16.13;;;;;;;2.93;85.05;99340.50;3704237;80;25789;-79
2020/12/04 12:03:46;;;;;;;17.80;14.30;;;;;;;2.93;85.13;99332.59;3704283;80;25838;-79
2020/12/04 12:08:47;;;;;;;23.17;17.00;;;;;;;2.95;85.52;99325.53;3705344;80;32599;-80
2020/12/04 12:13:48;;;;;;;21.67;15.97;;;;;;;3.06;85.16;99305.52;3704768;80;32483;-79
2020/12/04 12:18:49;;;;;;;22.03;15.77;;;;;;;3.03;85.07;99316.52;3712830;80;28535;-78
2020/12/04 12:23:50;;;;;;;22.07;15.43;;;;;;;3.02;85.45;99288.50;3710928;79;27791;-78
2020/12/04 12:28:51;;;;;;;21.23;15.67;;;;;;;2.96;85.90;99272.83;3704680;80;25796;-80
2020/12/04 12:33:52;;;;;;;24.07;15.67;;;;;;;3.00;85.57;99291.61;3704301;80;25741;-79
2020/12/04 12:38:55;;;;;;;21.10;15.07;;;;;;;3.05;85.30;99280.08;3704382;80;25754;-79
2020/12/04 12:43:56;;;;;;;20.70;15.30;;;;;;;3.10;85.00;99298.81;3704293;80;32786;-80
2020/12/04 12:48:57;;;;;;;20.40;14.23;;;;;;;3.09;85.04;99293.59;3704414;80;27906;-79
2020/12/04 12:53:58;;;;;;;19.90;14.83;;;;;;;3.08;85.28;99287.91;3705670;80;27821;-79
2020/12/04 12:58:59;;;;;;;22.23;16.70;;;;;;;3.12;84.78;99293.49;3706521;80;25753;-79
2020/12/04 13:04:00;;;;;;;20.93;15.50;;;;;;;3.23;84.64;99294.08;3688023;80;26304;-71
2020/12/04 13:09:01;;;;;;;22.00;15.80;;;;;;;3.63;82.47;99242.87;3620925;81;25811;-71
2020/12/04 13:14:03;;;;;;;24.30;16.43;;;;;;;3.99;80.41;99269.02;3621261;81;25702;-80
2020/12/04 13:19:05;;;;;;;22.97;16.10;;;;;;;3.74;81.46;99260.11;3621554;81;25806;-78
2020/12/04 13:24:06;;;;;;;20.50;15.48;;;;;;;3.58;82.49;99259.28;3621403;81;29694;-79
2020/12/04 13:29:08;;;;;;;21.03;14.83;;;;;;;3.69;81.70;99294.55;3621366;81;25791;-78
2020/12/04 13:34:09;;;;;;;20.43;15.72;;;;;;;3.33;83.50;99286.78;3621656;81;28814;-79
2020/12/04 13:39:11;;;;;;;21.35;16.45;;;;;;;3.17;84.65;99286.35;3621648;81;29729;-71
2020/12/04 13:44:15;;;;;;;19.97;16.40;;;;;;;3.10;85.48;99263.26;3621516;81;28821;-79
2020/12/04 13:49:18;;;;;;;21.53;16.30;;;;;;;3.08;85.69;99284.81;3623044;81;32600;-78
2020/12/04 13:54:19;;;;;;;21.17;16.47;;;;;;;3.03;86.11;99284.93;3624300;81;32551;-78
2020/12/04 13:59:20;;;;;;;20.00;14.60;;;;;;;3.00;86.54;99321.89;3624074;81;26804;-77
2020/12/04 14:04:21;;;;;;;21.63;16.30;;;;;;;2.93;87.06;99324.70;3626593;80;28863;-78
2020/12/04 14:09:22;;;;;;;22.43;16.33;;;;;;;2.96;87.29;99345.23;3642173;81;28708;-78
2020/12/04 14:14:24;;;;;;;22.40;16.07;;;;;;;3.01;87.08;99360.48;3646393;81;25703;-79
2020/12/04 14:19:26;;;;;;;22.57;16.07;;;;;;;2.98;87.24;99336.85;3643908;81;25708;-77
2020/12/04 14:24:27;;;;;;;24.03;17.90;;;;;;;2.95;87.72;99369.86;3644066;81;32949;-79
2020/12/04 14:29:28;;;;;;;26.13;17.23;;;;;;;2.86;88.74;99374.03;3642439;81;29259;-80
2020/12/04 14:34:30;;;;;;;18.75;13.53;;;;;;;2.78;89.11;99354.48;3642358;81;29288;-79
2020/12/04 14:39:31;;;;;;;21.10;16.37;;;;;;;2.77;89.37;99337.39;3642017;81;28764;-79
2020/12/04 14:44:32;;;;;;;23.80;17.33;;;;;;;2.80;89.36;99345.23;3626951;81;26759;-79
2020/12/04 14:49:34;;;;;;;21.37;15.97;;;;;;;2.73;89.64;99330.49;3641877;81;28761;-79
2020/12/04 14:54:35;;;;;;;22.90;16.43;;;;;;;2.62;90.58;99329.44;3641799;81;28719;-80
2020/12/04 14:59:35;;;;;;;24.73;19.47;;;;;;;2.58;91.01;99335.66;3641884;81;25770;-79
2020/12/04 15:04:40;;;;;;;24.97;17.73;;;;;;;2.56;91.40;99354.13;3654550;80;25826;-79
2020/12/04 15:09:41;;;;;;;26.17;18.73;;;;;;;2.53;91.59;99362.96;3703970;80;32964;-80
2020/12/04 15:14:42;;;;;;;26.13;18.77;;;;;;;2.65;91.37;99350.40;3690786;79;157863;-78
2020/12/04 15:19:44;;;;;;;27.17;20.50;;;;;;;2.58;91.58;99354.96;3647017;81;171591;-79
2020/12/04 15:24:46;;;;;;;25.17;19.20;;;;;;;2.54;91.81;99380.48;3650676;81;25785;-79
2020/12/04 15:29:47;;;;;;;29.83;19.87;;;;;;;2.48;92.66;99392.90;3641956;81;32546;-80
2020/12/04 15:34:49;;;;;;;30.77;21.63;;;;;;;2.39;93.29;99402.75;3641722;81;26759;-80
2020/12/04 15:39:52;;;;;;;27.07;20.30;;;;;;;2.37;93.60;99383.94;3641887;81;27017;-80
2020/12/04 15:44:53;;;;;;;25.00;19.33;;;;;;;2.48;93.15;99396.84;3641872;81;32424;-80
2020/12/04 15:49:54;;;;;;;27.67;20.37;;;;;;;2.49;93.06;99392.89;3641825;81;25898;-79
2020/12/04 15:54:55;;;;;;;32.10;22.97;;;;;;;2.46;93.40;99379.79;3641926;81;26815;-79
2020/12/04 15:59:56;;;;;;;34.70;23.87;;;;;;;2.44;93.85;99382.05;3641768;81;28548;-80
2020/12/04 16:04:57;;;;;;;64.63;43.17;;;;;;;2.39;94.25;99363.30;3637812;81;25838;-78
2020/12/04 16:09:58;;;;;;;30.53;21.70;;;;;;;2.46;94.22;99363.16;3614581;82;25790;-80
2020/12/04 16:15:00;;;;;;;28.70;20.70;;;;;;;2.48;94.01;99374.48;3619545;81;25792;-77
2020/12/04 16:20:01;;;;;;;29.27;20.40;;;;;;;2.60;93.42;99368.95;3615814;82;25723;-79
2020/12/04 16:25:02;;;;;;;28.73;20.87;;;;;;;2.58;93.56;99381.27;3622012;82;25554;-78
2020/12/04 16:30:05;;;;;;;24.83;19.03;;;;;;;2.49;94.11;99381.05;3621787;82;25362;-80
2020/12/04 16:35:07;;;;;;;30.30;20.73;;;;;;;2.52;94.13;99372.21;3621317;81;26868;-77
2020/12/04 16:40:08;;;;;;;27.60;20.43;;;;;;;2.63;93.55;99389.91;3634526;80;25452;-78
2020/12/04 16:45:10;;;;;;;29.00;20.00;;;;;;;2.68;93.27;99388.03;3631922;81;29053;-78
2020/12/04 16:50:11;;;;;;;26.73;19.87;;;;;;;2.76;92.69;99392.25;3631416;81;27652;-78
2020/12/04 16:55:14;;;;;;;28.67;20.20;;;;;;;2.71;93.35;99387.12;3628832;81;32477;-76
2020/12/04 17:00:15;;;;;;;29.13;20.40;;;;;;;2.71;93.42;99391.92;3646322;80;25767;-81
2020/12/04 17:05:16;;;;;;;28.37;20.47;;;;;;;2.67;93.71;99379.75;3646224;81;26899;-77
2020/12/04 17:10:17;;;;;;;29.97;19.67;;;;;;;2.67;93.70;99382.38;3659502;81;28771;-76
2020/12/04 17:15:18;;;;;;;30.23;23.00;;;;;;;2.71;93.88;99386.66;3645055;80;27852;-75
2020/12/04 17:20:19;;;;;;;26.03;19.97;;;;;;;2.79;93.54;99386.92;3639807;81;27804;-78
2020/12/04 17:25:21;;;;;;;27.07;20.83;;;;;;;2.85;93.08;99389.41;3637480;81;25819;-80
2020/12/04 17:30:22;;;;;;;29.60;21.23;;;;;;;2.87;92.96;99406.88;3638930;81;26828;-78
2020/12/04 17:35:23;;;;;;;25.40;19.47;;;;;;;2.89;93.05;99408.16;3638938;80;25776;-78
2020/12/04 17:40:25;;;;;;;26.43;20.20;;;;;;;2.90;92.68;99403.31;3643031;81;26360;-69
2020/12/04 17:45:26;;;;;;;24.63;19.80;;;;;;;2.92;92.84;99408.09;3637544;80;25766;-78
2020/12/04 17:50:27;;;;;;;25.23;19.50;;;;;;;3.02;92.13;99409.61;3639664;80;25739;-78
2020/12/04 17:55:28;;;;;;;25.47;18.50;;;;;;;3.11;91.16;99433.53;3639391;80;26073;-78
2020/12/04 18:00:29;;;;;;;23.10;18.37;;;;;;;3.11;91.17;99436.59;3632346;81;25820;-78
2020/12/04 18:05:31;;;;;;;29.03;19.83;;;;;;;3.10;91.39;99443.64;3655829;80;25791;-80
2020/12/04 18:10:33;;;;;;;27.53;19.57;;;;;;;3.05;91.80;99459.13;3631490;80;25844;-80
2020/12/04 18:15:37;;;;;;;27.63;20.43;;;;;;;3.08;91.52;99457.28;3606103;80;26850;-78
2020/12/04 18:20:38;;;;;;;28.27;20.30;;;;;;;3.12;91.37;99447.55;3611682;80;32521;-79
2020/12/04 18:25:39;;;;;;;29.00;20.47;;;;;;;3.16;90.95;99443.48;3618050;80;26813;-78
2020/12/04 18:30:40;;;;;;;26.13;19.27;;;;;;;3.14;90.86;99435.22;3636133;80;27679;-78
2020/12/04 18:35:41;;;;;;;33.33;22.87;;;;;;;3.06;91.41;99460.43;3633177;80;25858;-78
2020/12/04 18:40:42;;;;;;;33.37;22.90;;;;;;;3.02;91.63;99475.44;3611330;80;25712;-79
2020/12/04 18:45:43;;;;;;;31.60;21.87;;;;;;;2.93;92.27;99490.13;3610933;80;25811;-80
2020/12/04 18:50:45;;;;;;;32.03;21.73;;;;;;;2.92;92.49;99489.70;3610256;80;25877;-79
2020/12/04 18:55:46;;;;;;;33.88;22.32;;;;;;;3.01;92.12;99507.94;3622123;80;28752;-78
2020/12/04 19:00:47;;;;;;;29.87;20.43;;;;;;;2.98;92.16;99501.41;3561231;80;27106;-79
2020/12/04 19:05:48;;;;;;;30.00;21.43;;;;;;;2.98;92.17;99505.36;3578657;81;25783;-78
2020/12/04 19:10:54;;;;;;;32.57;21.87;;;;;;;2.93;92.61;99499.77;3559477;82;25818;-79
2020/12/04 19:15:52;;;;;;;27.47;20.83;;;;;;;2.89;92.77;99497.66;3596924;82;32603;-79
2020/12/04 19:20:54;;;;;;;27.60;18.77;;;;;;;2.96;92.63;99514.20;3572164;82;28818;-78
2020/12/04 19:25:57;;;;;;;25.13;19.13;;;;;;;2.92;92.39;99517.34;3584368;82;27783;-78
2020/12/04 19:30:59;;;;;;;25.73;19.13;;;;;;;2.87;92.76;99506.06;3571853;82;32572;-71
2020/12/04 19:36:00;;;;;;;20.77;15.37;;;;;;;2.81;93.21;99500.95;3546823;82;32624;-81
2020/12/04 19:41:01;;;;;;;28.13;20.37;;;;;;;2.79;93.40;99500.10;3578571;82;28781;-80
2020/12/04 19:46:02;;;;;;;24.50;18.40;;;;;;;2.85;93.00;99496.02;3583601;82;27879;-79
2020/12/04 19:51:03;;;;;;;28.73;19.77;;;;;;;2.86;92.72;99505.64;3581800;81;26843;-77
2020/12/04 19:56:05;;;;;;;26.23;19.63;;;;;;;2.81;93.01;99494.36;3573867;81;26247;-80
2020/12/04 20:01:08;;;;;;;30.83;21.23;;;;;;;2.75;93.38;99504.57;3562074;82;26320;-79
2020/12/04 20:06:10;;;;;;;26.70;19.77;;;;;;;2.73;93.88;99524.78;3550322;81;32908;-79
2020/12/04 20:11:12;;;;;;;28.97;20.20;;;;;;;2.80;92.96;99509.73;3629535;81;32482;-78
2020/12/04 20:16:13;;;;;;;28.00;19.47;;;;;;;2.78;93.02;99522.94;3597333;81;32559;-80
2020/12/04 20:21:18;;;;;;;29.97;20.57;;;;;;;2.68;93.68;99514.81;3609578;81;26827;-79
2020/12/04 20:26:28;;;;;;;26.15;18.35;;;;;;;2.62;94.11;99519.75;3596468;81;34926;-79
2020/12/04 20:31:29;;;;;;;24.77;17.80;;;;;;;2.68;93.80;99516.98;3602361;81;32618;-78
2020/12/04 20:36:30;;;;;;;27.83;20.67;;;;;;;2.73;93.43;99529.20;3613381;81;26895;-78
2020/12/04 20:41:31;;;;;;;25.57;18.70;;;;;;;2.75;93.19;99526.09;3627502;81;27872;-79
2020/12/04 20:46:33;;;;;;;28.23;20.80;;;;;;;2.65;93.76;99518.38;3579802;81;26955;-79
2020/12/04 20:51:36;;;;;;;31.80;20.30;;;;;;;2.65;93.86;99521.45;3576766;81;27849;-79
2020/12/04 20:56:37;;;;;;;25.20;18.67;;;;;;;2.73;93.56;99522.61;3580744;81;33130;-72
2020/12/04 21:01:38;;;;;;;30.33;20.57;;;;;;;2.76;93.38;99521.21;3598994;81;28834;-81
2020/12/04 21:06:42;;;;;;;28.70;19.80;;;;;;;2.71;93.74;99503.77;3624428;81;25765;-81
2020/12/04 21:11:43;;;;;;;29.57;21.47;;;;;;;2.66;94.40;99517.92;3596167;81;32991;-77
2020/12/04 21:16:47;;;;;;;24.27;17.57;;;;;;;2.58;95.10;99516.78;3601051;81;26868;-79
2020/12/04 21:21:48;;;;;;;27.30;19.90;;;;;;;2.63;95.00;99528.06;3601337;80;32514;-78
2020/12/04 21:26:55;;;;;;;30.80;22.10;;;;;;;2.66;95.18;99532.39;3576120;81;27736;-77
2020/12/04 21:31:56;;;;;;;33.10;23.63;;;;;;;2.66;95.11;99542.92;3528114;84;33084;-80
2020/12/04 21:36:57;;;;;;;30.90;21.70;;;;;;;2.63;95.50;99539.91;3486970;85;27389;-81
2020/12/04 21:41:58;;;;;;;31.33;22.10;;;;;;;2.57;96.31;99551.87;3553768;83;27317;-79
2020/12/04 21:46:59;;;;;;;30.08;20.62;;;;;;;2.65;95.99;99563.55;3486701;85;26916;-79
2020/12/04 21:52:03;;;;;;;32.70;23.97;;;;;;;2.69;95.75;99573.98;3552134;83;26480;-81
2020/12/04 21:57:04;;;;;;;28.73;20.93;;;;;;;2.70;95.71;99563.88;3486669;85;32758;-80
2020/12/04 22:02:06;;;;;;;33.33;22.60;;;;;;;2.67;96.12;99558.70;3553677;83;32446;-81
2020/12/04 22:07:07;;;;;;;32.73;21.27;;;;;;;2.66;96.50;99558.70;3557486;81;26789;-81
2020/12/04 22:12:08;;;;;;;29.23;20.80;;;;;;;2.73;96.08;99554.20;3569512;83;26252;-72
2020/12/04 22:17:09;;;;;;;30.57;21.00;;;;;;;2.80;95.67;99568.96;3569466;83;25782;-78
2020/12/04 22:22:10;;;;;;;27.37;20.17;;;;;;;2.85;95.20;99574.98;3569584;83;25781;-79
2020/12/04 22:27:11;;;;;;;29.00;21.20;;;;;;;2.86;95.25;99580.67;3570239;83;25745;-79
2020/12/04 22:32:12;;;;;;;29.43;19.77;;;;;;;2.89;95.04;99576.64;3549341;83;26209;-80
2020/12/04 22:37:13;;;;;;;25.70;18.80;;;;;;;3.00;94.41;99577.29;3569726;82;26280;-81
2020/12/04 22:42:14;;;;;;;27.20;18.90;;;;;;;3.10;93.81;99578.41;3569496;83;25832;-82
2020/12/04 22:47:15;;;;;;;24.97;19.17;;;;;;;3.19;93.10;99565.90;3569428;83;25815;-79
2020/12/04 22:52:19;;;;;;;21.03;15.97;;;;;;;3.25;92.69;99587.26;3570162;83;25755;-79
2020/12/04 22:57:20;;;;;;;25.07;18.40;;;;;;;3.37;91.78;99559.77;3549404;83;25960;-78
2020/12/04 23:02:21;;;;;;;25.97;18.10;;;;;;;3.40;92.03;99562.77;3569600;83;25788;-79
2020/12/04 23:07:22;;;;;;;21.33;15.63;;;;;;;3.47;91.47;99565.67;3565729;83;25751;-78
2020/12/04 23:12:23;;;;;;;23.97;17.90;;;;;;;3.55;91.06;99574.27;3486659;85;25778;-77
2020/12/04 23:17:24;;;;;;;25.17;18.80;;;;;;;3.75;89.34;99564.99;3553412;83;25759;-79
2020/12/04 23:22:25;;;;;;;22.83;16.83;;;;;;;3.72;89.88;99565.09;3486649;85;25774;-80
2020/12/04 23:27:26;;;;;;;25.67;18.30;;;;;;;3.73;89.59;99564.19;3553583;83;25840;-78